sensor_id;sensor_type;location;lat;lon;timestamp;temperature;humidity
49549;DHT22;35450;44.518;7.466;2022-11-15T00:02:39;10.40;99.90
49549;DHT22;35450;44.518;7.466;2022-11-15T00:06:03;10.30;99.90
49549;DHT22;35450;44.518;7.466;2022-11-15T00:09:26;10.40;99.90
49549;DHT22;35450;44.518;7.466;2022-11-15T00:12:49;10.50;99.90
49549;DHT22;35450;44.518;7.466;2022-11-15T00:16:11;10.50;99.90
49549;DHT22;35450;44.518;7.466;2022-11-15T00:19:34;10.50;99.90
49549;DHT22;35450;44.518;7.466;2022-11-15T00:22:57;10.50;99.90
49549;DHT22;35450;44.518;7.466;2022-11-15T00:26:19;10.50;99.90
49549;DHT22;35450;44.518;7.466;2022-11-15T00:29:42;10.60;99.90
49549;DHT22;35450;44.518;7.466;2022-11-15T00:33:08;10.60;99.90
49549;DHT22;35450;44.518;7.466;2022-11-15T00:36:33;10.50;99.90
49549;DHT22;35450;44.518;7.466;2022-11-15T00:39:56;10.40;99.90
49549;DHT22;35450;44.518;7.466;2022-11-15T00:43:19;10.50;99.90
49549;DHT22;35450;44.518;7.466;2022-11-15T00:46:41;10.50;99.90
49549;DHT22;35450;44.518;7.466;2022-11-15T00:50:04;10.50;99.90
49549;DHT22;35450;44.518;7.466;2022-11-15T00:53:27;10.60;99.90
49549;DHT22;35450;44.518;7.466;2022-11-15T00:56:50;10.50;99.90
49549;DHT22;35450;44.518;7.466;2022-11-15T01:00:13;10.50;99.90
49549;DHT22;35450;44.518;7.466;2022-11-15T01:03:37;10.40;99.90
49549;DHT22;35450;44.518;7.466;2022-11-15T01:07:00;10.40;99.90
49549;DHT22;35450;44.518;7.466;2022-11-15T01:10:23;10.30;99.90
49549;DHT22;35450;44.518;7.466;2022-11-15T01:13:47;10.30;99.90
49549;DHT22;35450;44.518;7.466;2022-11-15T01:17:10;10.30;99.90
49549;DHT22;35450;44.518;7.466;2022-11-15T01:20:33;10.40;99.90
49549;DHT22;35450;44.518;7.466;2022-11-15T01:23:56;10.50;99.90
49549;DHT22;35450;44.518;7.466;2022-11-15T01:27:19;10.50;99.90
49549;DHT22;35450;44.518;7.466;2022-11-15T01:30:42;10.50;99.90
49549;DHT22;35450;44.518;7.466;2022-11-15T01:34:05;10.50;99.90
49549;DHT22;35450;44.518;7.466;2022-11-15T01:37:27;10.50;99.90
49549;DHT22;35450;44.518;7.466;2022-11-15T01:40:50;10.30;99.90
49549;DHT22;35450;44.518;7.466;2022-11-15T01:48:02;10.30;99.90
49549;DHT22;35450;44.518;7.466;2022-11-15T01:51:27;10.40;99.90
49549;DHT22;35450;44.518;7.466;2022-11-15T01:55:02;10.50;99.90
49549;DHT22;35450;44.518;7.466;2022-11-15T01:58:25;10.50;99.90
49549;DHT22;35450;44.518;7.466;2022-11-15T02:01:48;10.50;99.90
49549;DHT22;35450;44.518;7.466;2022-11-15T02:05:12;10.50;99.90
49549;DHT22;35450;44.518;7.466;2022-11-15T02:08:35;10.50;99.90
49549;DHT22;35450;44.518;7.466;2022-11-15T02:11:58;10.50;99.90
49549;DHT22;35450;44.518;7.466;2022-11-15T02:15:25;10.50;99.90
49549;DHT22;35450;44.518;7.466;2022-11-15T02:18:54;10.60;99.90
49549;DHT22;35450;44.518;7.466;2022-11-15T02:41:08;10.50;99.90
49549;DHT22;35450;44.518;7.466;2022-11-15T02:44:32;10.40;99.90
49549;DHT22;35450;44.518;7.466;2022-11-15T02:47:58;10.40;99.90
49549;DHT22;35450;44.518;7.466;2022-11-15T02:51:22;10.40;99.90
49549;DHT22;35450;44.518;7.466;2022-11-15T02:54:54;10.40;99.90
49549;DHT22;35450;44.518;7.466;2022-11-15T03:09:50;10.40;99.90
49549;DHT22;35450;44.518;7.466;2022-11-15T03:13:47;10.40;99.90
49549;DHT22;35450;44.518;7.466;2022-11-15T03:17:33;10.40;99.90
49549;DHT22;35450;44.518;7.466;2022-11-15T03:21:00;10.40;99.90
49549;DHT22;35450;44.518;7.466;2022-11-15T03:24:24;10.40;99.90
49549;DHT22;35450;44.518;7.466;2022-11-15T03:27:51;10.40;99.90
49549;DHT22;35450;44.518;7.466;2022-11-15T03:31:15;10.50;99.90
49549;DHT22;35450;44.518;7.466;2022-11-15T03:35:09;10.50;99.90
49549;DHT22;35450;44.518;7.466;2022-11-15T03:38:34;10.50;99.90
49549;DHT22;35450;44.518;7.466;2022-11-15T03:42:25;10.40;99.90
49549;DHT22;35450;44.518;7.466;2022-11-15T03:46:10;10.40;99.90
49549;DHT22;35450;44.518;7.466;2022-11-15T03:49:37;10.30;99.90
49549;DHT22;35450;44.518;7.466;2022-11-15T03:53:00;10.30;99.90
49549;DHT22;35450;44.518;7.466;2022-11-15T03:56:24;10.40;99.90
49549;DHT22;35450;44.518;7.466;2022-11-15T03:59:46;10.40;99.90
49549;DHT22;35450;44.518;7.466;2022-11-15T04:03:09;10.30;99.90
49549;DHT22;35450;44.518;7.466;2022-11-15T04:06:31;10.20;99.90
49549;DHT22;35450;44.518;7.466;2022-11-15T04:09:53;10.20;99.90
49549;DHT22;35450;44.518;7.466;2022-11-15T04:13:25;10.30;99.90
49549;DHT22;35450;44.518;7.466;2022-11-15T04:16:47;10.30;99.90
49549;DHT22;35450;44.518;7.466;2022-11-15T04:20:23;10.40;99.90
49549;DHT22;35450;44.518;7.466;2022-11-15T04:24:05;10.40;99.90
49549;DHT22;35450;44.518;7.466;2022-11-15T04:27:27;10.30;99.90
49549;DHT22;35450;44.518;7.466;2022-11-15T04:30:50;10.30;99.90
49549;DHT22;35450;44.518;7.466;2022-11-15T04:34:13;10.40;99.90
49549;DHT22;35450;44.518;7.466;2022-11-15T04:37:35;10.30;99.90
49549;DHT22;35450;44.518;7.466;2022-11-15T04:40:58;10.30;99.90
49549;DHT22;35450;44.518;7.466;2022-11-15T04:44:21;10.30;99.90
49549;DHT22;35450;44.518;7.466;2022-11-15T04:47:44;10.30;99.90
49549;DHT22;35450;44.518;7.466;2022-11-15T04:51:07;10.30;99.90
49549;DHT22;35450;44.518;7.466;2022-11-15T04:54:29;10.30;99.90
49549;DHT22;35450;44.518;7.466;2022-11-15T04:58:02;10.30;99.90
49549;DHT22;35450;44.518;7.466;2022-11-15T05:01:25;10.20;99.90
49549;DHT22;35450;44.518;7.466;2022-11-15T05:04:47;10.30;99.90
49549;DHT22;35450;44.518;7.466;2022-11-15T05:08:10;10.20;99.90
49549;DHT22;35450;44.518;7.466;2022-11-15T05:11:32;10.30;99.90
49549;DHT22;35450;44.518;7.466;2022-11-15T05:14:55;10.30;99.90
49549;DHT22;35450;44.518;7.466;2022-11-15T05:18:18;10.30;99.90
49549;DHT22;35450;44.518;7.466;2022-11-15T05:21:40;10.20;99.90
49549;DHT22;35450;44.518;7.466;2022-11-15T05:25:04;10.10;99.90
49549;DHT22;35450;44.518;7.466;2022-11-15T05:28:27;10.10;99.90
49549;DHT22;35450;44.518;7.466;2022-11-15T05:31:50;10.20;99.90
49549;DHT22;35450;44.518;7.466;2022-11-15T05:35:30;10.20;99.90
49549;DHT22;35450;44.518;7.466;2022-11-15T05:38:55;10.20;99.90
49549;DHT22;35450;44.518;7.466;2022-11-15T05:42:17;10.30;99.90
49549;DHT22;35450;44.518;7.466;2022-11-15T05:45:40;10.20;99.90
49549;DHT22;35450;44.518;7.466;2022-11-15T05:49:03;10.20;99.90
49549;DHT22;35450;44.518;7.466;2022-11-15T05:52:31;10.20;99.90
49549;DHT22;35450;44.518;7.466;2022-11-15T05:55:55;10.20;99.90
49549;DHT22;35450;44.518;7.466;2022-11-15T05:59:19;10.20;99.90
49549;DHT22;35450;44.518;7.466;2022-11-15T06:02:41;10.10;99.90
49549;DHT22;35450;44.518;7.466;2022-11-15T06:06:05;10.10;99.90
49549;DHT22;35450;44.518;7.466;2022-11-15T06:09:28;10.00;99.90
49549;DHT22;35450;44.518;7.466;2022-11-15T06:13:01;10.00;99.90
49549;DHT22;35450;44.518;7.466;2022-11-15T06:16:23;10.10;99.90
49549;DHT22;35450;44.518;7.466;2022-11-15T06:19:46;10.10;99.90
49549;DHT22;35450;44.518;7.466;2022-11-15T06:23:09;10.00;99.90
49549;DHT22;35450;44.518;7.466;2022-11-15T06:26:32;10.00;99.90
49549;DHT22;35450;44.518;7.466;2022-11-15T06:29:54;10.00;99.90
49549;DHT22;35450;44.518;7.466;2022-11-15T06:33:17;10.10;99.90
49549;DHT22;35450;44.518;7.466;2022-11-15T06:36:39;10.00;99.90
49549;DHT22;35450;44.518;7.466;2022-11-15T06:40:02;10.10;99.90
49549;DHT22;35450;44.518;7.466;2022-11-15T06:43:25;10.10;99.90
49549;DHT22;35450;44.518;7.466;2022-11-15T06:46:48;10.20;99.90
49549;DHT22;35450;44.518;7.466;2022-11-15T06:50:11;10.20;99.90
49549;DHT22;35450;44.518;7.466;2022-11-15T06:53:34;10.10;99.90
49549;DHT22;35450;44.518;7.466;2022-11-15T06:56:57;10.10;99.90
49549;DHT22;35450;44.518;7.466;2022-11-15T07:00:21;10.10;99.90
49549;DHT22;35450;44.518;7.466;2022-11-15T07:03:44;10.10;99.90
49549;DHT22;35450;44.518;7.466;2022-11-15T07:07:10;10.10;99.90
49549;DHT22;35450;44.518;7.466;2022-11-15T07:10:32;10.20;99.90
49549;DHT22;35450;44.518;7.466;2022-11-15T07:13:55;10.20;99.90
49549;DHT22;35450;44.518;7.466;2022-11-15T07:17:17;10.30;99.90
49549;DHT22;35450;44.518;7.466;2022-11-15T07:20:40;10.30;99.90
49549;DHT22;35450;44.518;7.466;2022-11-15T07:24:02;10.30;99.90
49549;DHT22;35450;44.518;7.466;2022-11-15T07:27:26;10.30;99.90
49549;DHT22;35450;44.518;7.466;2022-11-15T07:30:48;10.30;99.90
49549;DHT22;35450;44.518;7.466;2022-11-15T07:34:11;10.20;99.90
49549;DHT22;35450;44.518;7.466;2022-11-15T07:37:34;10.20;99.90
49549;DHT22;35450;44.518;7.466;2022-11-15T07:40:57;10.20;99.90
49549;DHT22;35450;44.518;7.466;2022-11-15T07:44:20;10.20;99.90
49549;DHT22;35450;44.518;7.466;2022-11-15T07:47:46;10.10;99.90
49549;DHT22;35450;44.518;7.466;2022-11-15T07:51:12;10.10;99.90
49549;DHT22;35450;44.518;7.466;2022-11-15T07:54:35;10.10;99.90
49549;DHT22;35450;44.518;7.466;2022-11-15T07:58:06;10.20;99.90
49549;DHT22;35450;44.518;7.466;2022-11-15T08:01:29;10.20;99.90
49549;DHT22;35450;44.518;7.466;2022-11-15T08:04:51;10.20;99.90
49549;DHT22;35450;44.518;7.466;2022-11-15T08:08:15;10.20;99.90
49549;DHT22;35450;44.518;7.466;2022-11-15T08:11:38;10.20;99.90
49549;DHT22;35450;44.518;7.466;2022-11-15T08:15:00;10.10;99.90
49549;DHT22;35450;44.518;7.466;2022-11-15T08:18:23;10.00;99.90
49549;DHT22;35450;44.518;7.466;2022-11-15T08:21:46;10.00;99.90
49549;DHT22;35450;44.518;7.466;2022-11-15T08:25:09;10.00;99.90
49549;DHT22;35450;44.518;7.466;2022-11-15T08:28:32;10.10;99.90
49549;DHT22;35450;44.518;7.466;2022-11-15T08:31:55;10.10;99.90
49549;DHT22;35450;44.518;7.466;2022-11-15T08:35:20;10.20;99.90
49549;DHT22;35450;44.518;7.466;2022-11-15T08:38:43;10.20;99.90
49549;DHT22;35450;44.518;7.466;2022-11-15T08:42:06;10.10;99.90
49549;DHT22;35450;44.518;7.466;2022-11-15T08:45:30;10.10;99.90
49549;DHT22;35450;44.518;7.466;2022-11-15T08:48:54;10.10;99.90
49549;DHT22;35450;44.518;7.466;2022-11-15T08:52:18;10.20;99.90
49549;DHT22;35450;44.518;7.466;2022-11-15T08:55:41;10.20;99.90
49549;DHT22;35450;44.518;7.466;2022-11-15T08:59:08;10.30;99.90
49549;DHT22;35450;44.518;7.466;2022-11-15T09:02:31;10.20;99.90
49549;DHT22;35450;44.518;7.466;2022-11-15T09:05:54;10.30;99.90
49549;DHT22;35450;44.518;7.466;2022-11-15T09:09:17;10.30;99.90
49549;DHT22;35450;44.518;7.466;2022-11-15T09:12:40;10.40;99.90
49549;DHT22;35450;44.518;7.466;2022-11-15T09:16:04;10.40;99.90
49549;DHT22;35450;44.518;7.466;2022-11-15T09:19:27;10.40;99.90
49549;DHT22;35450;44.518;7.466;2022-11-15T09:22:49;10.40;99.90
49549;DHT22;35450;44.518;7.466;2022-11-15T09:26:12;10.50;99.90
49549;DHT22;35450;44.518;7.466;2022-11-15T09:29:35;10.60;99.90
49549;DHT22;35450;44.518;7.466;2022-11-15T09:32:58;10.70;99.90
49549;DHT22;35450;44.518;7.466;2022-11-15T09:36:21;10.70;99.90
49549;DHT22;35450;44.518;7.466;2022-11-15T09:39:43;10.70;99.90
49549;DHT22;35450;44.518;7.466;2022-11-15T09:47:03;10.70;99.90
49549;DHT22;35450;44.518;7.466;2022-11-15T09:50:42;10.80;99.90
49549;DHT22;35450;44.518;7.466;2022-11-15T09:57:15;10.90;99.90
49549;DHT22;35450;44.518;7.466;2022-11-15T10:00:35;10.90;99.90
49549;DHT22;35450;44.518;7.466;2022-11-15T10:03:41;10.90;99.90
49549;DHT22;35450;44.518;7.466;2022-11-15T10:13:32;10.90;99.90
49549;DHT22;35450;44.518;7.466;2022-11-15T10:23:50;11.00;99.90
49549;DHT22;35450;44.518;7.466;2022-11-15T10:26:55;11.00;99.90
49549;DHT22;35450;44.518;7.466;2022-11-15T10:30:00;11.10;99.90
49549;DHT22;35450;44.518;7.466;2022-11-15T10:33:26;11.00;99.90
49549;DHT22;35450;44.518;7.466;2022-11-15T10:36:32;11.10;99.90
49549;DHT22;35450;44.518;7.466;2022-11-15T10:39:36;11.20;99.90
49549;DHT22;35450;44.518;7.466;2022-11-15T10:42:40;11.20;99.90
49549;DHT22;35450;44.518;7.466;2022-11-15T10:45:45;11.20;99.90
49549;DHT22;35450;44.518;7.466;2022-11-15T10:48:50;11.20;99.90
49549;DHT22;35450;44.518;7.466;2022-11-15T10:52:17;11.20;99.90
49549;DHT22;35450;44.518;7.466;2022-11-15T10:55:29;11.30;99.90
49549;DHT22;35450;44.518;7.466;2022-11-15T11:01:47;11.30;99.90
49549;DHT22;35450;44.518;7.466;2022-11-15T11:04:52;11.30;99.90
49549;DHT22;35450;44.518;7.466;2022-11-15T11:08:18;11.40;99.90
49549;DHT22;35450;44.518;7.466;2022-11-15T11:11:24;11.40;99.90
49549;DHT22;35450;44.518;7.466;2022-11-15T11:14:34;11.40;99.90
49549;DHT22;35450;44.518;7.466;2022-11-15T11:18:04;11.40;99.90
49549;DHT22;35450;44.518;7.466;2022-11-15T11:21:15;11.40;99.90
49549;DHT22;35450;44.518;7.466;2022-11-15T11:31:29;11.10;99.90
49549;DHT22;35450;44.518;7.466;2022-11-15T11:38:42;11.40;99.90
49549;DHT22;35450;44.518;7.466;2022-11-15T11:45:14;11.60;99.90
49549;DHT22;35450;44.518;7.466;2022-11-15T11:48:50;11.60;99.90
49549;DHT22;35450;44.518;7.466;2022-11-15T11:52:10;11.70;99.90
49549;DHT22;35450;44.518;7.466;2022-11-15T11:55:20;11.70;99.90
49549;DHT22;35450;44.518;7.466;2022-11-15T11:58:38;11.70;99.90
49549;DHT22;35450;44.518;7.466;2022-11-15T12:01:44;11.70;99.90
49549;DHT22;35450;44.518;7.466;2022-11-15T12:04:51;11.60;99.90
49549;DHT22;35450;44.518;7.466;2022-11-15T12:08:17;11.60;99.90
49549;DHT22;35450;44.518;7.466;2022-11-15T12:11:38;11.60;99.90
49549;DHT22;35450;44.518;7.466;2022-11-15T12:18:15;11.60;99.90
49549;DHT22;35450;44.518;7.466;2022-11-15T12:24:59;11.70;99.90
49549;DHT22;35450;44.518;7.466;2022-11-15T12:28:15;11.80;99.90
49549;DHT22;35450;44.518;7.466;2022-11-15T12:31:27;11.80;99.90
49549;DHT22;35450;44.518;7.466;2022-11-15T12:34:44;11.80;99.90
49549;DHT22;35450;44.518;7.466;2022-11-15T12:37:51;11.80;99.90
49549;DHT22;35450;44.518;7.466;2022-11-15T12:47:36;11.80;99.90
49549;DHT22;35450;44.518;7.466;2022-11-15T12:53:57;11.80;99.90
49549;DHT22;35450;44.518;7.466;2022-11-15T13:03:23;11.90;99.90
49549;DHT22;35450;44.518;7.466;2022-11-15T13:06:44;11.90;99.90
49549;DHT22;35450;44.518;7.466;2022-11-15T13:09:51;11.90;99.90
49549;DHT22;35450;44.518;7.466;2022-11-15T13:13:08;11.80;99.90
49549;DHT22;35450;44.518;7.466;2022-11-15T13:16:20;11.80;99.90
49549;DHT22;35450;44.518;7.466;2022-11-15T13:19:24;11.90;99.90
49549;DHT22;35450;44.518;7.466;2022-11-15T13:26:13;11.80;99.90
49549;DHT22;35450;44.518;7.466;2022-11-15T13:29:20;11.60;99.90
49549;DHT22;35450;44.518;7.466;2022-11-15T13:32:24;11.60;99.90
49549;DHT22;35450;44.518;7.466;2022-11-15T13:35:40;11.60;99.90
49549;DHT22;35450;44.518;7.466;2022-11-15T13:38:44;11.60;99.90
49549;DHT22;35450;44.518;7.466;2022-11-15T13:41:50;11.50;99.90
49549;DHT22;35450;44.518;7.466;2022-11-15T13:45:00;11.60;99.90
49549;DHT22;35450;44.518;7.466;2022-11-15T13:48:08;11.50;99.90
49549;DHT22;35450;44.518;7.466;2022-11-15T13:54:40;11.60;99.90
49549;DHT22;35450;44.518;7.466;2022-11-15T14:01:03;11.60;99.90
49549;DHT22;35450;44.518;7.466;2022-11-15T14:04:12;11.60;99.90
49549;DHT22;35450;44.518;7.466;2022-11-15T14:07:21;11.60;99.90
49549;DHT22;35450;44.518;7.466;2022-11-15T14:10:30;11.60;99.90
49549;DHT22;35450;44.518;7.466;2022-11-15T14:13:34;11.60;99.90
49549;DHT22;35450;44.518;7.466;2022-11-15T14:16:46;11.60;99.90
49549;DHT22;35450;44.518;7.466;2022-11-15T14:19:51;11.60;99.90
49549;DHT22;35450;44.518;7.466;2022-11-15T14:22:57;11.50;99.90
49549;DHT22;35450;44.518;7.466;2022-11-15T14:26:02;11.60;99.90
49549;DHT22;35450;44.518;7.466;2022-11-15T14:29:42;11.60;99.90
49549;DHT22;35450;44.518;7.466;2022-11-15T14:32:49;11.50;99.90
49549;DHT22;35450;44.518;7.466;2022-11-15T14:35:54;11.50;99.90
49549;DHT22;35450;44.518;7.466;2022-11-15T14:38:59;11.40;99.90
49549;DHT22;35450;44.518;7.466;2022-11-15T14:42:08;11.40;99.90
49549;DHT22;35450;44.518;7.466;2022-11-15T14:45:16;11.40;99.90
49549;DHT22;35450;44.518;7.466;2022-11-15T14:48:21;11.40;99.90
49549;DHT22;35450;44.518;7.466;2022-11-15T14:51:25;11.30;99.90
49549;DHT22;35450;44.518;7.466;2022-11-15T14:54:30;11.40;99.90
49549;DHT22;35450;44.518;7.466;2022-11-15T14:57:34;11.10;99.90
49549;DHT22;35450;44.518;7.466;2022-11-15T15:00:40;11.00;99.90
49549;DHT22;35450;44.518;7.466;2022-11-15T15:03:46;10.90;99.90
49549;DHT22;35450;44.518;7.466;2022-11-15T15:06:51;10.90;99.90
49549;DHT22;35450;44.518;7.466;2022-11-15T15:09:56;10.90;99.90
49549;DHT22;35450;44.518;7.466;2022-11-15T15:13:00;10.90;99.90
49549;DHT22;35450;44.518;7.466;2022-11-15T15:16:06;11.00;99.90
49549;DHT22;35450;44.518;7.466;2022-11-15T15:19:10;11.10;99.90
49549;DHT22;35450;44.518;7.466;2022-11-15T15:22:19;11.10;99.90
49549;DHT22;35450;44.518;7.466;2022-11-15T15:25:33;11.10;99.90
49549;DHT22;35450;44.518;7.466;2022-11-15T15:28:37;11.10;99.90
49549;DHT22;35450;44.518;7.466;2022-11-15T15:31:43;10.90;99.90
49549;DHT22;35450;44.518;7.466;2022-11-15T15:34:47;10.80;99.90
49549;DHT22;35450;44.518;7.466;2022-11-15T15:37:51;10.70;99.90
49549;DHT22;35450;44.518;7.466;2022-11-15T15:40:55;10.80;99.90
49549;DHT22;35450;44.518;7.466;2022-11-15T15:43:59;10.80;99.90
49549;DHT22;35450;44.518;7.466;2022-11-15T15:47:10;10.90;99.90
49549;DHT22;35450;44.518;7.466;2022-11-15T15:53:18;10.90;99.90
49549;DHT22;35450;44.518;7.466;2022-11-15T15:56:23;11.00;99.90
49549;DHT22;35450;44.518;7.466;2022-11-15T15:59:27;10.90;99.90
49549;DHT22;35450;44.518;7.466;2022-11-15T16:02:30;11.00;99.90
49549;DHT22;35450;44.518;7.466;2022-11-15T16:05:34;11.00;99.90
49549;DHT22;35450;44.518;7.466;2022-11-15T16:08:38;11.00;99.90
49549;DHT22;35450;44.518;7.466;2022-11-15T16:11:44;11.00;99.90
49549;DHT22;35450;44.518;7.466;2022-11-15T16:14:48;11.00;99.90
49549;DHT22;35450;44.518;7.466;2022-11-15T16:17:58;11.00;99.90
49549;DHT22;35450;44.518;7.466;2022-11-15T16:21:03;11.00;99.90
49549;DHT22;35450;44.518;7.466;2022-11-15T16:24:06;11.10;99.90
49549;DHT22;35450;44.518;7.466;2022-11-15T16:27:19;11.10;99.90
49549;DHT22;35450;44.518;7.466;2022-11-15T16:30:24;11.10;99.90
49549;DHT22;35450;44.518;7.466;2022-11-15T16:33:28;11.10;99.90
49549;DHT22;35450;44.518;7.466;2022-11-15T16:36:34;11.10;99.90
49549;DHT22;35450;44.518;7.466;2022-11-15T16:39:38;11.00;99.90
49549;DHT22;35450;44.518;7.466;2022-11-15T16:42:42;11.00;99.90
49549;DHT22;35450;44.518;7.466;2022-11-15T16:45:46;11.00;99.90
49549;DHT22;35450;44.518;7.466;2022-11-15T16:48:51;11.00;99.90
49549;DHT22;35450;44.518;7.466;2022-11-15T16:51:56;11.00;99.90
49549;DHT22;35450;44.518;7.466;2022-11-15T16:55:00;10.90;99.90
49549;DHT22;35450;44.518;7.466;2022-11-15T16:58:05;10.90;99.90
49549;DHT22;35450;44.518;7.466;2022-11-15T17:01:21;10.80;99.90
49549;DHT22;35450;44.518;7.466;2022-11-15T17:04:25;10.70;99.90
49549;DHT22;35450;44.518;7.466;2022-11-15T17:07:35;10.60;99.90
49549;DHT22;35450;44.518;7.466;2022-11-15T17:10:39;10.70;99.90
49549;DHT22;35450;44.518;7.466;2022-11-15T17:13:47;10.80;99.90
49549;DHT22;35450;44.518;7.466;2022-11-15T17:16:52;10.90;99.90
49549;DHT22;35450;44.518;7.466;2022-11-15T17:19:56;10.90;99.90
49549;DHT22;35450;44.518;7.466;2022-11-15T17:22:59;10.90;99.90
49549;DHT22;35450;44.518;7.466;2022-11-15T17:26:05;10.90;99.90
49549;DHT22;35450;44.518;7.466;2022-11-15T17:29:09;10.90;99.90
49549;DHT22;35450;44.518;7.466;2022-11-15T17:32:13;10.90;99.90
49549;DHT22;35450;44.518;7.466;2022-11-15T17:35:17;10.80;99.90
49549;DHT22;35450;44.518;7.466;2022-11-15T17:38:21;10.80;99.90
49549;DHT22;35450;44.518;7.466;2022-11-15T17:41:25;10.80;99.90
49549;DHT22;35450;44.518;7.466;2022-11-15T17:44:31;10.70;99.90
49549;DHT22;35450;44.518;7.466;2022-11-15T17:47:35;10.80;99.90
49549;DHT22;35450;44.518;7.466;2022-11-15T17:50:39;10.90;99.90
49549;DHT22;35450;44.518;7.466;2022-11-15T17:53:46;10.90;99.90
49549;DHT22;35450;44.518;7.466;2022-11-15T17:56:52;10.80;99.90
49549;DHT22;35450;44.518;7.466;2022-11-15T17:59:55;10.90;99.90
49549;DHT22;35450;44.518;7.466;2022-11-15T18:02:59;10.90;99.90
49549;DHT22;35450;44.518;7.466;2022-11-15T18:06:05;10.90;99.90
49549;DHT22;35450;44.518;7.466;2022-11-15T18:09:09;10.90;99.90
49549;DHT22;35450;44.518;7.466;2022-11-15T18:12:13;11.00;99.90
49549;DHT22;35450;44.518;7.466;2022-11-15T18:15:17;11.00;99.90
49549;DHT22;35450;44.518;7.466;2022-11-15T18:18:21;11.00;99.90
49549;DHT22;35450;44.518;7.466;2022-11-15T18:21:28;10.90;99.90
49549;DHT22;35450;44.518;7.466;2022-11-15T18:24:34;10.90;99.90
49549;DHT22;35450;44.518;7.466;2022-11-15T18:27:38;10.90;99.90
49549;DHT22;35450;44.518;7.466;2022-11-15T18:30:42;10.90;99.90
49549;DHT22;35450;44.518;7.466;2022-11-15T18:33:47;10.90;99.90
49549;DHT22;35450;44.518;7.466;2022-11-15T18:36:52;10.90;99.90
49549;DHT22;35450;44.518;7.466;2022-11-15T18:39:56;10.90;99.90
49549;DHT22;35450;44.518;7.466;2022-11-15T18:43:00;10.80;99.90
49549;DHT22;35450;44.518;7.466;2022-11-15T18:46:11;10.90;99.90
49549;DHT22;35450;44.518;7.466;2022-11-15T18:49:16;10.90;99.90
49549;DHT22;35450;44.518;7.466;2022-11-15T18:52:22;10.80;99.90
49549;DHT22;35450;44.518;7.466;2022-11-15T18:55:26;10.60;99.90
49549;DHT22;35450;44.518;7.466;2022-11-15T18:58:35;10.50;99.90
49549;DHT22;35450;44.518;7.466;2022-11-15T19:01:41;10.60;99.90
49549;DHT22;35450;44.518;7.466;2022-11-15T19:04:46;10.60;99.90
49549;DHT22;35450;44.518;7.466;2022-11-15T19:07:50;10.60;99.90
49549;DHT22;35450;44.518;7.466;2022-11-15T19:10:54;10.70;99.90
49549;DHT22;35450;44.518;7.466;2022-11-15T19:13:59;10.70;99.90
49549;DHT22;35450;44.518;7.466;2022-11-15T19:17:05;10.80;99.90
49549;DHT22;35450;44.518;7.466;2022-11-15T19:20:09;10.80;99.90
49549;DHT22;35450;44.518;7.466;2022-11-15T19:23:13;10.80;99.90
49549;DHT22;35450;44.518;7.466;2022-11-15T19:26:17;10.80;99.90
49549;DHT22;35450;44.518;7.466;2022-11-15T19:29:21;10.80;99.90
49549;DHT22;35450;44.518;7.466;2022-11-15T19:32:26;10.90;99.90
49549;DHT22;35450;44.518;7.466;2022-11-15T19:35:30;10.70;99.90
49549;DHT22;35450;44.518;7.466;2022-11-15T19:38:34;10.60;99.90
49549;DHT22;35450;44.518;7.466;2022-11-15T19:41:42;10.50;99.90
49549;DHT22;35450;44.518;7.466;2022-11-15T19:44:46;10.40;99.90
49549;DHT22;35450;44.518;7.466;2022-11-15T19:47:51;10.40;99.90
49549;DHT22;35450;44.518;7.466;2022-11-15T19:51:02;10.50;99.90
49549;DHT22;35450;44.518;7.466;2022-11-15T19:54:07;10.50;99.90
49549;DHT22;35450;44.518;7.466;2022-11-15T19:57:12;10.50;99.90
49549;DHT22;35450;44.518;7.466;2022-11-15T20:00:16;10.60;99.90
49549;DHT22;35450;44.518;7.466;2022-11-15T20:03:21;10.70;99.90
49549;DHT22;35450;44.518;7.466;2022-11-15T20:06:30;10.70;99.90
49549;DHT22;35450;44.518;7.466;2022-11-15T20:09:34;10.70;99.90
49549;DHT22;35450;44.518;7.466;2022-11-15T20:12:38;10.70;99.90
49549;DHT22;35450;44.518;7.466;2022-11-15T20:15:42;10.70;99.90
49549;DHT22;35450;44.518;7.466;2022-11-15T20:18:47;10.80;99.90
49549;DHT22;35450;44.518;7.466;2022-11-15T20:21:51;10.80;99.90
49549;DHT22;35450;44.518;7.466;2022-11-15T20:24:55;10.60;99.90
49549;DHT22;35450;44.518;7.466;2022-11-15T20:27:59;10.60;99.90
49549;DHT22;35450;44.518;7.466;2022-11-15T20:31:03;10.50;99.90
49549;DHT22;35450;44.518;7.466;2022-11-15T20:34:07;10.30;99.90
49549;DHT22;35450;44.518;7.466;2022-11-15T20:37:11;10.30;99.90
49549;DHT22;35450;44.518;7.466;2022-11-15T20:40:15;10.20;99.90
49549;DHT22;35450;44.518;7.466;2022-11-15T20:43:20;10.30;99.90
49549;DHT22;35450;44.518;7.466;2022-11-15T20:46:24;10.10;99.90
49549;DHT22;35450;44.518;7.466;2022-11-15T20:49:28;10.20;99.90
49549;DHT22;35450;44.518;7.466;2022-11-15T20:52:31;10.40;99.90
49549;DHT22;35450;44.518;7.466;2022-11-15T20:55:47;10.50;99.90
49549;DHT22;35450;44.518;7.466;2022-11-15T20:58:51;10.40;99.90
49549;DHT22;35450;44.518;7.466;2022-11-15T21:01:55;10.40;99.90
49549;DHT22;35450;44.518;7.466;2022-11-15T21:04:59;10.40;99.90
49549;DHT22;35450;44.518;7.466;2022-11-15T21:08:04;10.40;99.90
49549;DHT22;35450;44.518;7.466;2022-11-15T21:11:08;10.50;99.90
49549;DHT22;35450;44.518;7.466;2022-11-15T21:14:31;10.50;99.90
49549;DHT22;35450;44.518;7.466;2022-11-15T21:17:35;10.60;99.90
49549;DHT22;35450;44.518;7.466;2022-11-15T21:20:39;10.60;99.90
49549;DHT22;35450;44.518;7.466;2022-11-15T21:23:43;10.50;99.90
49549;DHT22;35450;44.518;7.466;2022-11-15T21:26:47;10.40;99.90
49549;DHT22;35450;44.518;7.466;2022-11-15T21:29:51;10.30;99.90
49549;DHT22;35450;44.518;7.466;2022-11-15T21:32:55;10.30;99.90
49549;DHT22;35450;44.518;7.466;2022-11-15T21:35:59;10.30;99.90
49549;DHT22;35450;44.518;7.466;2022-11-15T21:39:03;10.20;99.90
49549;DHT22;35450;44.518;7.466;2022-11-15T21:42:07;10.10;99.90
49549;DHT22;35450;44.518;7.466;2022-11-15T21:45:11;10.10;99.90
49549;DHT22;35450;44.518;7.466;2022-11-15T21:48:15;10.20;99.90
49549;DHT22;35450;44.518;7.466;2022-11-15T21:51:19;10.30;99.90
49549;DHT22;35450;44.518;7.466;2022-11-15T21:54:23;10.40;99.90
49549;DHT22;35450;44.518;7.466;2022-11-15T21:57:27;10.50;99.90
49549;DHT22;35450;44.518;7.466;2022-11-15T22:00:32;10.50;99.90
49549;DHT22;35450;44.518;7.466;2022-11-15T22:03:54;10.50;99.90
49549;DHT22;35450;44.518;7.466;2022-11-15T22:06:58;10.60;99.90
49549;DHT22;35450;44.518;7.466;2022-11-15T22:10:03;10.70;99.90
49549;DHT22;35450;44.518;7.466;2022-11-15T22:13:07;10.70;99.90
49549;DHT22;35450;44.518;7.466;2022-11-15T22:16:11;10.70;99.90
49549;DHT22;35450;44.518;7.466;2022-11-15T22:19:15;10.70;99.90